Chesterfield Inlet, Canada
Current Conditions -  °F | °C
As of 7:00 AM on Saturday 25 Oct 2014 (Local Time) from CYRT Reporting Station
Light Snow Light Snow  
Wind Chill: 15°   Ceiling: 1000
Heat Index: 28°   Visibility: 3mi
Dew Point: 27°   Wind: 22mph
Humidity: 93%   Direction: 80°E
Pressure: 29.66"   Gusts: 33mph
Location:  63.33°N, 90.7°W
Report Text: CYRT 251200Z 08019G29KT 3SM -SN OVC010 M02/M03 A2966 RMK SC8 SLP046
Loading
Personal Weather Stations






























Interactive Weather Map
Tropical Storm Tracking
New forecast layout! Learn more

10-Day Weather Forecast

Advertisements
Track Severe Weather on mobile